Time;durP1;ratioP1;P1;durP2;ratioP2;P2;SDS_P1;SDS_P2;PMS_P1;PMS_P2;Temp;Humidity;BMP_temperature;BMP_pressure;BME280_temperature;BME280_humidity;BME280_pressure;Samples;Min_cycle;Max_cycle;Signal;HPM_P1;HPM_P2
2022/05/20 00:01:33;;;;;;;7.70;2.90;;;;;;;19.64;40.92;100749.34;5269230;55;1138962;-71
2022/05/20 00:06:39;;;;;;;7.75;2.98;;;;;;;19.56;40.99;100745.32;5235322;55;1136938;-72
2022/05/20 00:11:45;;;;;;;11.53;3.20;;;;;;;19.48;41.26;100747.50;5220824;56;1137158;-72
2022/05/20 00:16:51;;;;;;;8.75;3.52;;;;;;;19.43;41.53;100739.63;5230937;55;1139246;-72
2022/05/20 00:21:57;;;;;;;10.85;3.37;;;;;;;19.39;41.78;100753.06;5230971;55;1135258;-72
2022/05/20 00:27:03;;;;;;;6.90;3.37;;;;;;;19.31;42.04;100753.40;5151489;55;1137129;-71
2022/05/20 00:32:10;;;;;;;6.80;3.18;;;;;;;19.20;42.43;100760.46;5106478;56;1138962;-72
2022/05/20 00:37:16;;;;;;;12.07;3.60;;;;;;;19.08;42.99;100765.00;5287576;55;1138994;-72
2022/05/20 00:42:22;;;;;;;12.07;3.25;;;;;;;18.91;43.28;100761.47;5156084;56;1141189;-71
2022/05/20 00:47:27;;;;;;;10.13;3.13;;;;;;;18.83;43.67;100756.93;5152858;57;1141354;-71
2022/05/20 00:52:36;;;;;;;7.12;3.33;;;;;;;18.81;43.92;100746.03;5124670;56;1141046;-71
2022/05/20 00:57:49;;;;;;;4.34;2.74;;;;;;;18.80;44.26;100746.53;5169004;56;1139375;-71
2022/05/20 01:02:57;;;;;;;;;;;;;;;18.81;44.36;100739.34;5244266;55;1138842;-72
2022/05/20 01:08:04;;;;;;;6.10;2.77;;;;;;;18.91;44.63;100738.69;5243856;56;976431;-72
2022/05/20 01:13:13;;;;;;;8.33;3.10;;;;;;;18.91;44.67;100735.51;5233521;55;1137172;-72
2022/05/20 01:18:20;;;;;;;9.58;3.08;;;;;;;18.89;44.75;100737.52;5389786;54;1138962;-72
2022/05/20 01:23:28;;;;;;;6.35;3.55;;;;;;;18.87;45.04;100737.34;5372756;54;1139484;-71
2022/05/20 01:28:36;;;;;;;12.65;3.47;;;;;;;18.76;45.47;100741.20;5276744;55;1139065;-72
2022/05/20 01:33:46;;;;;;;3.70;2.92;;;;;;;18.58;45.99;100751.19;5280866;55;1141150;-72
2022/05/20 01:38:54;;;;;;;10.32;3.85;;;;;;;18.40;46.55;100747.80;5317478;55;1139244;-72
2022/05/20 01:44:12;;;;;;;10.40;3.23;;;;;;;18.29;47.02;100746.27;5278968;55;1141089;-71
2022/05/20 01:49:43;;;;;;;11.15;3.55;;;;;;;18.30;47.13;100743.09;5218837;56;1141447;-72
2022/05/20 01:54:56;;;;;;;21.30;3.98;;;;;;;18.29;47.49;100752.97;5286418;55;1141314;-71
2022/05/20 02:00:12;;;;;;;9.30;3.00;;;;;;;18.19;48.12;100742.88;5299224;55;1141397;-72
2022/05/20 02:05:28;;;;;;;4.85;3.15;;;;;;;18.07;48.37;100730.30;5313303;55;1138894;-71
2022/05/20 02:11:01;;;;;;;11.22;3.10;;;;;;;18.01;49.08;100736.31;5276097;55;1139193;-71
2022/05/20 02:16:20;;;;;;;3.93;3.07;;;;;;;17.96;49.91;100739.13;5252747;55;1139085;-72
2022/05/20 02:21:30;;;;;;;5.80;3.53;;;;;;;17.88;50.21;100738.58;5252651;55;1136958;-71
2022/05/20 02:26:43;;;;;;;11.50;3.13;;;;;;;17.86;50.83;100745.45;5225225;56;1137249;-71
2022/05/20 02:32:14;;;;;;;7.53;3.97;;;;;;;17.78;51.51;100745.90;5172407;56;1138909;-71
2022/05/20 02:37:33;;;;;;;7.77;3.77;;;;;;;17.68;52.19;100755.89;5219528;56;1137098;-71
2022/05/20 02:42:39;;;;;;;10.93;4.03;;;;;;;17.60;52.55;100749.95;5211553;55;1138965;-71
2022/05/20 02:47:45;;;;;;;11.00;3.75;;;;;;;17.59;52.73;100754.45;5205902;56;1140958;-71
2022/05/20 02:52:51;;;;;;;6.93;3.13;;;;;;;17.55;52.72;100760.30;5189326;56;1146335;-71
2022/05/20 02:57:57;;;;;;;13.40;3.73;;;;;;;17.54;52.60;100765.31;5180789;56;1148784;-71
2022/05/20 03:08:27;;;;;;;7.90;4.13;;;;;;;17.55;52.84;100749.11;5211627;56;1141275;-71
2022/05/20 03:13:32;;;;;;;12.00;3.67;;;;;;;17.62;52.54;100756.48;5211696;56;1138966;-71
2022/05/20 03:18:38;;;;;;;8.90;3.97;;;;;;;17.65;52.62;100766.91;5211625;56;1141067;-71
2022/05/20 03:23:44;;;;;;;8.13;3.70;;;;;;;17.66;52.69;100760.56;5233791;55;1138860;-71
2022/05/20 03:28:50;;;;;;;10.57;3.57;;;;;;;17.64;53.13;100771.41;5300085;55;1139457;-71
2022/05/20 03:33:57;;;;;;;9.47;3.00;;;;;;;17.60;53.18;100772.69;5300010;55;1140966;-71
2022/05/20 03:39:04;;;;;;;6.10;3.40;;;;;;;17.55;53.96;100783.88;5299799;55;1139210;-71
2022/05/20 03:44:12;;;;;;;8.53;2.97;;;;;;;17.49;54.07;100772.46;5283440;55;1138998;-71
2022/05/20 03:49:20;;;;;;;6.83;3.57;;;;;;;17.48;54.54;100779.30;5243975;55;1138919;-71
2022/05/20 03:54:34;;;;;;;12.50;3.33;;;;;;;17.44;54.71;100779.27;5164963;56;1138914;-71
2022/05/20 03:59:40;;;;;;;4.47;3.23;;;;;;;17.40;54.91;100781.94;5216651;56;1140988;-72
2022/05/20 04:04:51;;;;;;;4.03;2.83;;;;;;;17.36;55.30;100784.08;5190956;57;1139037;-72
2022/05/20 04:09:56;;;;;;;6.77;2.70;;;;;;;17.37;55.29;100791.10;5191041;57;1139267;-72
2022/05/20 04:15:05;;;;;;;7.07;2.67;;;;;;;17.46;55.59;100792.83;5191119;57;1138970;-71
2022/05/20 04:20:12;;;;;;;8.73;3.13;;;;;;;17.59;55.92;100797.75;5168786;57;1139015;-72
2022/05/20 04:25:17;;;;;;;2.73;2.10;;;;;;;17.71;56.59;100800.56;5229756;55;1138932;-73
2022/05/20 04:30:23;;;;;;;6.73;2.40;;;;;;;17.81;57.46;100809.80;5255779;55;1138963;-72
2022/05/20 04:35:28;;;;;;;8.60;3.93;;;;;;;17.88;58.00;100816.17;5278553;55;1138877;-71
2022/05/20 04:40:34;;;;;;;8.37;3.47;;;;;;;17.95;58.01;100813.22;5224163;56;1139253;-72
2022/05/20 04:51:04;;;;;;;5.63;2.70;;;;;;;17.95;58.49;100831.11;5191003;57;1139512;-73
2022/05/20 04:56:11;;;;;;;7.00;2.40;;;;;;;17.94;59.32;100836.97;5289660;55;1138923;-74
2022/05/20 05:01:17;;;;;;;36.97;4.70;;;;;;;18.02;60.18;100837.52;5309199;55;1139205;-74
2022/05/20 05:06:24;;;;;;;4.13;2.70;;;;;;;18.14;60.96;100841.09;5309066;55;1141125;-72
2022/05/20 05:11:29;;;;;;;8.10;2.50;;;;;;;18.25;61.00;100838.62;5339954;54;1137064;-71
2022/05/20 05:16:38;;;;;;;5.87;2.37;;;;;;;18.39;61.67;100838.52;5401093;54;1136915;-70
2022/05/20 05:21:43;;;;;;;8.00;3.20;;;;;;;18.55;62.04;100842.09;5400986;54;1137315;-71
2022/05/20 05:26:49;;;;;;;5.33;2.10;;;;;;;18.73;62.04;100843.84;5389183;54;1136749;-72
2022/05/20 05:31:55;;;;;;;7.97;2.77;;;;;;;18.81;62.32;100851.39;5314549;54;1136916;-74
2022/05/20 05:37:01;;;;;;;3.20;2.42;;;;;;;18.88;62.73;100852.92;5339393;54;1136912;-74
2022/05/20 05:42:07;;;;;;;9.95;2.98;;;;;;;18.99;63.07;100867.34;5384032;54;1137221;-74
2022/05/20 05:47:13;;;;;;;7.13;2.80;;;;;;;19.07;63.32;100861.17;5296633;54;1137083;-74
2022/05/20 05:52:22;;;;;;;5.43;2.70;;;;;;;19.13;64.32;100862.67;5375457;54;1136908;-75
2022/05/20 05:57:28;;;;;;;4.87;2.25;;;;;;;19.28;64.77;100865.53;5398173;54;1137211;-73
2022/05/20 06:02:34;;;;;;;3.62;1.77;;;;;;;19.44;65.76;100869.56;5388596;54;1136764;-71
2022/05/20 06:07:40;;;;;;;27.13;4.50;;;;;;;19.63;66.74;100867.08;5388361;54;1137190;-70
2022/05/20 06:12:47;;;;;;;6.35;2.50;;;;;;;19.80;65.82;100877.29;5392365;54;1138995;-75
2022/05/20 06:17:54;;;;;;;28.15;3.15;;;;;;;19.97;67.65;100871.73;5389161;54;1136825;-70
2022/05/20 06:23:01;;;;;;;9.55;2.58;;;;;;;20.07;67.31;100876.05;5379592;54;1139084;-71
2022/05/20 06:28:11;;;;;;;3.65;2.47;;;;;;;20.21;67.50;100874.00;5201485;56;1137369;-72
2022/05/20 06:33:17;;;;;;;8.03;2.00;;;;;;;20.38;68.74;100891.77;5143354;56;1134917;-73
2022/05/20 06:43:46;;;;;;;3.47;2.10;;;;;;;20.73;70.06;100882.89;5213509;56;1135179;-74
2022/05/20 06:48:55;;;;;;;4.25;1.92;;;;;;;20.88;69.49;100887.34;5169606;56;1139003;-76
2022/05/20 06:54:05;;;;;;;2.85;2.15;;;;;;;21.05;69.89;100890.78;5163170;57;1138972;-72
2022/05/20 06:59:10;;;;;;;13.03;3.10;;;;;;;21.15;69.61;100891.37;5126173;56;1139019;-73
2022/05/20 07:04:16;;;;;;;3.02;2.37;;;;;;;21.21;69.66;100902.81;5156253;56;1141116;-72
2022/05/20 07:09:22;;;;;;;6.20;2.50;;;;;;;21.14;70.08;100890.20;5156402;56;1138939;-72
2022/05/20 07:14:27;;;;;;;6.17;2.70;;;;;;;21.24;70.40;100891.66;5156179;56;1139004;-74
2022/05/20 07:19:34;;;;;;;2.70;2.50;;;;;;;21.45;69.84;100907.16;5156165;56;1139084;-75
2022/05/20 07:24:40;;;;;;;4.15;3.27;;;;;;;21.40;69.58;100909.03;5159389;56;1138984;-74
2022/05/20 07:29:45;;;;;;;5.70;3.50;;;;;;;21.40;70.83;100913.07;5139452;57;1139068;-71
2022/05/20 07:34:51;;;;;;;4.20;3.27;;;;;;;21.43;70.56;100911.87;5309493;55;1139065;-72
2022/05/20 07:39:56;;;;;;;8.18;3.45;;;;;;;21.43;70.56;100923.16;5309354;55;1138786;-72
2022/05/20 07:45:03;;;;;;;5.47;3.10;;;;;;;21.40;70.30;100921.14;5309561;55;1139444;-75
2022/05/20 07:50:10;;;;;;;16.52;3.30;;;;;;;21.58;70.87;100915.97;5309379;55;1139121;-71
2022/05/20 07:55:17;;;;;;;4.62;3.12;;;;;;;21.67;69.85;100909.01;5309126;55;1141131;-73
2022/05/20 08:00:24;;;;;;;5.48;2.52;;;;;;;21.78;69.55;100911.77;5285960;55;1139011;-72
2022/05/20 08:05:33;;;;;;;2.70;2.60;;;;;;;21.89;69.01;100911.83;5278605;56;1139235;-72
2022/05/20 08:10:39;;;;;;;8.73;2.90;;;;;;;21.91;68.94;100903.05;5280340;55;1138916;-74
2022/05/20 08:15:45;;;;;;;2.83;2.62;;;;;;;22.05;68.24;100917.09;5278470;55;1139007;-72
2022/05/20 08:20:51;;;;;;;12.43;3.47;;;;;;;22.12;68.12;100910.46;5278446;56;1139037;-75
2022/05/20 08:25:56;;;;;;;3.30;2.77;;;;;;;22.04;67.67;100913.55;5274675;55;1141323;-74
2022/05/20 08:31:02;;;;;;;4.65;2.87;;;;;;;22.10;67.19;100919.56;5221724;56;1138957;-75
2022/05/20 08:36:08;;;;;;;6.90;1.95;;;;;;;22.14;67.21;100924.08;5301304;55;1139031;-74
2022/05/20 08:41:31;;;;;;;7.12;2.10;;;;;;;22.45;66.45;100911.78;5310291;55;1138971;-73
2022/05/20 08:46:36;;;;;;;4.17;2.73;;;;;;;22.66;65.22;100915.04;5291330;55;1138991;-73
2022/05/20 08:51:45;;;;;;;4.22;2.27;;;;;;;22.46;64.94;100918.81;5221642;55;1139411;-73
2022/05/20 08:56:52;;;;;;;4.37;2.10;;;;;;;22.50;64.69;100913.38;5163916;56;1139189;-72
2022/05/20 09:01:58;;;;;;;2.08;1.98;;;;;;;22.73;64.75;100915.97;5180485;56;1139203;-72
2022/05/20 09:07:08;;;;;;;1.98;1.87;;;;;;;22.65;64.16;100913.36;5189038;56;1139124;-72
2022/05/20 09:12:36;;;;;;;11.80;2.60;;;;;;;22.80;63.76;100914.21;5199763;56;1139079;-75
2022/05/20 09:17:48;;;;;;;5.62;2.17;;;;;;;23.00;63.41;100907.20;5189811;56;1138970;-72
2022/05/20 09:23:02;;;;;;;4.78;2.25;;;;;;;22.95;62.17;100915.52;5228950;56;1137058;-72
2022/05/20 09:28:37;;;;;;;1.90;1.80;;;;;;;22.92;63.11;100923.48;5278542;55;1136910;-74
2022/05/20 09:33:56;;;;;;;2.20;1.98;;;;;;;22.92;63.14;100922.64;5231739;56;1136913;-73
2022/05/20 09:39:13;;;;;;;2.90;1.70;;;;;;;23.20;61.61;100910.12;5251052;56;1138982;-73
2022/05/20 09:44:24;;;;;;;3.07;1.90;;;;;;;23.25;60.21;100913.06;5202633;56;1138919;-72
2022/05/20 09:49:52;;;;;;;2.87;2.10;;;;;;;23.27;60.72;100920.45;5190944;56;1139171;-72
2022/05/20 09:55:00;;;;;;;4.67;1.85;;;;;;;23.29;59.57;100924.31;5190574;57;1139326;-73
2022/05/20 10:00:26;;;;;;;4.03;1.60;;;;;;;23.17;57.34;100925.34;5195433;56;1139065;-73
2022/05/20 10:05:45;;;;;;;4.35;1.60;;;;;;;23.22;58.90;100922.08;5211251;56;1138997;-72
2022/05/20 10:11:27;;;;;;;10.38;2.70;;;;;;;23.68;56.36;100918.50;5015293;58;1139032;-75
2022/05/20 10:16:50;;;;;;;1.87;1.77;;;;;;;23.81;56.81;100915.91;5131395;57;1141427;-71
2022/05/20 10:22:29;;;;;;;;;;;;;;;24.09;57.42;100900.52;5081434;57;1138897;-75
2022/05/20 10:28:11;;;;;;;2.33;2.22;;;;;;;23.83;55.96;100896.29;5149138;57;974509;-71
2022/05/20 10:33:27;;;;;;;6.78;1.98;;;;;;;23.70;56.38;100890.75;5067963;57;1134834;-71
2022/05/20 10:38:52;;;;;;;4.05;2.70;;;;;;;23.95;56.53;100870.39;5067707;57;1136902;-74
2022/05/20 10:50:18;;;;;;;1.97;1.87;;;;;;;24.36;55.92;100862.86;5071873;57;1139054;-73
2022/05/20 10:55:57;;;;;;;2.22;2.02;;;;;;;24.78;55.76;100852.30;5150103;56;1139004;-72
2022/05/20 11:01:07;;;;;;;1.65;1.52;;;;;;;24.95;54.71;100854.98;5068902;57;1139138;-71
2022/05/20 11:06:38;;;;;;;8.35;2.50;;;;;;;25.04;51.75;100865.95;5232215;56;1139241;-75
2022/05/20 11:12:00;;;;;;;2.70;2.05;;;;;;;25.10;52.54;100854.29;5232225;56;1138963;-72
2022/05/20 11:17:41;;;;;;;6.37;2.43;;;;;;;25.17;51.55;100853.80;5270201;55;1139009;-75
2022/05/20 11:23:00;;;;;;;2.85;2.35;;;;;;;25.06;51.25;100861.14;5363121;54;1136983;-74
2022/05/20 11:28:34;;;;;;;25.25;3.85;;;;;;;24.86;50.79;100859.73;5242952;56;1136835;-72
2022/05/20 11:34:13;;;;;;;4.78;1.92;;;;;;;24.58;50.88;100848.72;5269946;55;1139125;-75
2022/05/20 11:39:34;;;;;;;6.33;2.52;;;;;;;24.66;51.53;100841.25;5276510;55;1134998;-74
2022/05/20 11:44:49;;;;;;;2.43;2.23;;;;;;;24.86;51.25;100838.61;5221412;56;1138931;-73
2022/05/20 11:50:32;;;;;;;2.02;1.92;;;;;;;24.76;50.75;100822.74;5290946;55;1138977;-72
2022/05/20 11:55:55;;;;;;;;;;;;;;;24.65;51.55;100818.45;5084886;57;1138958;-73
2022/05/20 12:01:02;;;;;;;3.25;2.58;;;;;;;24.71;51.09;100802.25;5223453;56;976320;-75
2022/05/20 12:06:09;;;;;;;38.78;4.42;;;;;;;25.09;51.72;100790.88;5224494;56;1137141;-75
2022/05/20 12:11:35;;;;;;;4.50;2.22;;;;;;;25.37;49.55;100791.51;5262807;55;1141084;-71
2022/05/20 12:17:03;;;;;;;2.47;2.27;;;;;;;25.58;47.34;100787.75;5316836;55;1139345;-74
2022/05/20 12:27:42;;;;;;;;;;;;;;;25.47;47.06;100782.98;5336060;55;1138950;-75
2022/05/20 12:32:50;;;;;;;2.42;2.22;;;;;;;25.54;48.50;100776.50;5334617;54;976547;-72
2022/05/20 12:38:18;;;;;;;2.40;1.50;;;;;;;25.54;47.30;100762.95;5332083;55;1135070;-73
2022/05/20 12:43:46;;;;;;;3.30;2.27;;;;;;;25.72;47.54;100766.39;5332126;55;1136844;-72
2022/05/20 12:48:55;;;;;;;2.35;2.20;;;;;;;25.82;44.54;100757.81;5271816;54;1136861;-73
2022/05/20 12:54:03;;;;;;;5.58;1.80;;;;;;;25.94;43.97;100748.00;5233386;56;1137006;-75
2022/05/20 12:59:21;;;;;;;3.42;2.52;;;;;;;26.17;41.60;100724.44;5269058;55;1136963;-73
2022/05/20 13:04:31;;;;;;;2.47;2.27;;;;;;;26.40;41.84;100730.72;5225568;55;1137158;-75
2022/05/20 13:09:41;;;;;;;3.00;2.10;;;;;;;26.22;41.68;100719.20;5221885;55;1134761;-74
2022/05/20 13:15:01;;;;;;;9.35;2.45;;;;;;;25.96;43.05;100709.84;5221901;56;1138928;-71
2022/05/20 13:20:09;;;;;;;2.52;2.05;;;;;;;26.20;40.79;100701.80;5221844;56;1138926;-75
2022/05/20 13:25:16;;;;;;;7.08;1.90;;;;;;;26.38;40.13;100688.07;5266228;55;1138964;-73
2022/05/20 13:30:26;;;;;;;8.45;2.62;;;;;;;26.40;40.78;100691.41;5310833;55;1139042;-72
2022/05/20 13:35:39;;;;;;;5.03;1.87;;;;;;;26.47;40.29;100694.88;5310808;55;1138961;-74
2022/05/20 13:40:46;;;;;;;4.45;2.40;;;;;;;26.50;39.26;100698.52;5301633;55;1138964;-74
2022/05/20 13:51:15;;;;;;;8.68;2.12;;;;;;;26.74;39.41;100669.73;5221722;55;1139093;-74
2022/05/20 13:56:22;;;;;;;8.95;2.20;;;;;;;26.79;37.43;100668.04;5221650;56;1138982;-74
2022/05/20 14:01:28;;;;;;;4.35;2.12;;;;;;;26.73;37.94;100655.38;5219927;56;1139178;-76
2022/05/20 14:06:34;;;;;;;6.00;1.92;;;;;;;26.77;37.52;100636.22;5190760;56;1138939;-73
2022/05/20 14:11:45;;;;;;;5.45;2.30;;;;;;;26.94;36.80;100641.42;5190837;56;1139237;-74
2022/05/20 14:16:52;;;;;;;3.90;1.75;;;;;;;27.10;36.95;100639.18;5190737;55;1138287;-75
2022/05/20 14:22:05;;;;;;;1.90;1.80;;;;;;;27.10;35.70;100632.39;5190765;56;1138984;-75
2022/05/20 14:27:34;;;;;;;1.82;1.72;;;;;;;27.16;35.89;100626.91;5273415;55;1138867;-73
2022/05/20 14:32:40;;;;;;;2.42;1.85;;;;;;;27.29;34.63;100616.42;5241330;55;1138915;-73
2022/05/20 14:37:48;;;;;;;3.40;2.12;;;;;;;27.40;34.84;100607.52;5278966;55;1138918;-73
2022/05/20 14:43:05;;;;;;;3.40;1.65;;;;;;;27.13;34.20;100612.95;5278746;55;1139104;-71
2022/05/20 14:48:15;;;;;;;2.62;2.00;;;;;;;26.97;34.65;100602.14;5233422;55;1139206;-72
2022/05/20 14:53:37;;;;;;;8.45;2.12;;;;;;;26.90;34.39;100597.27;5191333;55;1138977;-71
2022/05/20 14:58:43;;;;;;;4.92;2.15;;;;;;;26.94;34.34;100586.30;5191712;56;1137117;-72
2022/05/20 15:03:48;;;;;;;2.92;2.00;;;;;;;27.10;34.32;100580.28;5226177;56;1136925;-73
2022/05/20 15:08:55;;;;;;;10.78;2.27;;;;;;;27.09;34.26;100577.27;5191507;55;1136991;-75
2022/05/20 15:14:01;;;;;;;6.10;2.35;;;;;;;27.02;34.77;100568.38;5191460;56;1139314;-71
2022/05/20 15:19:08;;;;;;;5.97;2.27;;;;;;;27.06;33.86;100576.88;5191482;55;1136868;-72
2022/05/20 15:24:22;;;;;;;4.28;2.37;;;;;;;27.07;33.76;100576.66;5222304;56;1136919;-73
2022/05/20 15:29:28;;;;;;;2.45;2.25;;;;;;;27.03;33.68;100565.13;5282755;55;1136943;-74
2022/05/20 15:34:52;;;;;;;1.90;1.80;;;;;;;26.96;33.65;100557.88;5278453;56;1137137;-73
2022/05/20 15:40:14;;;;;;;1.85;1.75;;;;;;;27.02;33.05;100547.19;5278982;55;1137147;-71
2022/05/20 15:45:24;;;;;;;5.20;2.07;;;;;;;26.92;32.10;100534.08;5279524;55;1139197;-72
2022/05/20 15:50:30;;;;;;;1.87;1.77;;;;;;;26.79;32.20;100517.95;5191877;55;1139137;-75
2022/05/20 15:55:47;;;;;;;4.90;2.35;;;;;;;26.51;31.43;100521.98;5191354;56;1138967;-72
2022/05/20 16:00:49;;;;;;;2.20;1.67;;;;;;;26.34;32.65;100529.55;5191124;55;1138994;-71
2022/05/20 16:05:57;;;;;;;3.92;2.20;;;;;;;26.34;33.48;100512.75;5223451;55;1139052;-73
2022/05/20 16:11:03;;;;;;;17.65;3.62;;;;;;;26.23;33.54;100514.28;5242857;55;1139022;-74
2022/05/20 16:16:09;;;;;;;3.40;1.90;;;;;;;26.19;34.34;100510.87;5242691;55;1141013;-75
2022/05/20 16:21:15;;;;;;;3.65;1.80;;;;;;;26.18;34.58;100505.97;5242663;55;1138927;-74
2022/05/20 16:26:25;;;;;;;28.32;6.25;;;;;;;26.17;34.84;100499.41;5312088;55;1138965;-74
2022/05/20 16:31:32;;;;;;;3.65;1.57;;;;;;;26.16;34.92;100500.46;5332170;54;1141535;-74
2022/05/20 16:36:38;;;;;;;2.35;2.00;;;;;;;26.11;35.22;100490.83;5242557;55;1139142;-75
2022/05/20 16:41:44;;;;;;;5.33;1.77;;;;;;;26.04;35.37;100477.84;5319039;55;1139046;-72
2022/05/20 16:46:52;;;;;;;7.83;1.90;;;;;;;25.98;35.65;100485.48;5308687;55;1139126;-75
2022/05/20 16:52:02;;;;;;;3.10;1.67;;;;;;;25.89;36.17;100481.70;5242669;55;1138999;-72
2022/05/20 17:02:33;;;;;;;9.73;5.00;;;;;;;25.72;37.16;100481.92;5262114;55;1139039;-75
2022/05/20 17:07:41;;;;;;;5.60;1.70;;;;;;;25.62;37.61;100468.56;5189664;55;1139240;-72
2022/05/20 17:12:47;;;;;;;8.43;1.90;;;;;;;25.55;37.70;100459.08;5180298;55;1139226;-72
2022/05/20 17:17:57;;;;;;;4.58;1.80;;;;;;;25.59;38.01;100453.55;5180222;55;1138983;-73
2022/05/20 17:28:27;;;;;;;17.40;2.40;;;;;;;25.53;38.33;100434.92;5267630;55;1139026;-71
2022/05/20 17:33:32;;;;;;;9.50;2.95;;;;;;;25.51;38.87;100431.60;5267620;55;1141073;-72
2022/05/20 17:38:38;;;;;;;23.15;15.20;;;;;;;25.55;39.31;100423.35;5247399;55;1139296;-72
2022/05/20 17:43:44;;;;;;;14.05;5.87;;;;;;;25.55;39.07;100419.29;5180439;56;1143120;-71
2022/05/20 17:48:50;;;;;;;19.67;9.33;;;;;;;25.64;39.26;100417.72;5212474;56;1141033;-73
2022/05/20 17:53:56;;;;;;;83.87;57.30;;;;;;;25.69;38.93;100413.80;5264885;55;1140624;-71
2022/05/20 17:59:02;;;;;;;30.00;19.02;;;;;;;25.69;38.66;100423.28;5322522;55;1143206;-74
2022/05/20 18:04:10;;;;;;;14.93;6.22;;;;;;;25.68;38.93;100400.78;5358433;54;1141061;-75
2022/05/20 18:09:20;;;;;;;17.65;4.83;;;;;;;25.70;38.83;100396.50;5387753;54;1139181;-74
2022/05/20 18:14:23;;;;;;;8.48;4.35;;;;;;;25.62;39.00;100393.55;5389722;54;1138966;-71
2022/05/20 18:19:29;;;;;;;13.72;6.33;;;;;;;25.64;39.28;100390.63;5390184;54;1137065;-72
2022/05/20 18:24:44;;;;;;;15.60;4.90;;;;;;;25.59;39.67;100374.47;5351569;54;1139430;-74
2022/05/20 18:29:50;;;;;;;182.75;23.73;;;;;;;25.57;40.38;100374.38;5298561;55;1139184;-75
2022/05/20 18:40:20;;;;;;;117.70;28.50;;;;;;;25.36;40.39;100349.84;5246458;55;1143229;-74
2022/05/20 18:45:28;;;;;;;97.25;19.67;;;;;;;25.19;40.47;100337.39;5224860;55;1143225;-72
2022/05/20 18:50:34;;;;;;;67.72;14.90;;;;;;;25.07;40.60;100336.94;5207880;56;1141142;-74
2022/05/20 18:55:40;;;;;;;66.35;12.28;;;;;;;24.94;41.05;100317.55;5218877;56;1141078;-74
2022/05/20 19:00:46;;;;;;;40.98;9.40;;;;;;;24.77;41.94;100300.14;5209740;56;1139088;-73
2022/05/20 19:05:52;;;;;;;38.02;9.23;;;;;;;24.58;42.61;100274.89;5219815;56;1136985;-73
2022/05/20 19:10:59;;;;;;;31.48;9.90;;;;;;;24.33;43.64;100265.31;5214155;56;1141080;-76
2022/05/20 19:16:05;;;;;;;45.38;8.94;;;;;;;24.01;44.19;100276.52;5200503;55;1141292;-70
2022/05/20 19:21:11;;;;;;;33.23;8.65;;;;;;;23.86;44.88;100261.08;5200574;56;1141059;-72
2022/05/20 19:26:19;;;;;;;31.93;7.83;;;;;;;23.69;45.57;100247.72;5197035;56;1141163;-73
2022/05/20 19:31:25;;;;;;;11.40;5.22;;;;;;;23.61;46.25;100225.84;5192016;56;1141217;-74
2022/05/20 19:36:31;;;;;;;12.93;6.33;;;;;;;23.54;47.75;100218.77;5279667;55;1141068;-75
2022/05/20 19:41:37;;;;;;;16.55;6.25;;;;;;;23.39;47.89;100209.52;5209973;56;1141254;-72
2022/05/20 19:46:43;;;;;;;46.00;7.55;;;;;;;23.26;48.47;100203.63;5276923;55;1141060;-71
2022/05/20 19:51:51;;;;;;;10.55;5.25;;;;;;;23.13;48.94;100186.11;5198724;56;1141108;-73
2022/05/20 20:00:39;;;;;;;9.73;4.00;;;;;;;23.06;49.28;100190.17;5196958;56;1141336;-69
2022/05/20 20:02:04;;;;;;;9.78;4.33;;;;;;;22.99;49.89;100177.71;5123450;57;1139057;-75
2022/05/20 20:07:10;;;;;;;10.55;4.50;;;;;;;22.94;50.37;100171.58;5123976;57;1138991;-73
2022/05/20 20:12:15;;;;;;;6.00;3.98;;;;;;;22.88;50.61;100171.59;5134688;57;1141234;-72
2022/05/20 20:17:21;;;;;;;46.08;21.25;;;;;;;22.89;51.17;100172.74;5144423;56;1139028;-70
2022/05/20 20:27:50;;;;;;;39.83;18.62;;;;;;;22.52;51.37;100167.89;5206582;55;1143105;-76
2022/05/20 20:32:56;;;;;;;17.57;11.10;;;;;;;22.47;51.96;100183.32;5222292;56;1143189;-72
2022/05/20 20:38:02;;;;;;;16.82;7.85;;;;;;;22.12;52.48;100173.72;5248528;56;1143279;-75
2022/05/20 20:43:09;;;;;;;13.13;7.62;;;;;;;21.91;53.68;100154.44;5216896;56;1141131;-70
2022/05/20 20:48:16;;;;;;;20.35;8.10;;;;;;;21.79;55.01;100160.92;5254644;56;1141070;-74
2022/05/20 20:53:22;;;;;;;18.92;6.60;;;;;;;21.74;55.36;100188.43;5287320;56;1141162;-76
2022/05/20 20:58:28;;;;;;;11.45;7.00;;;;;;;21.71;55.94;100198.75;5096189;57;1141251;-71
2022/05/20 21:03:34;;;;;;;19.42;7.10;;;;;;;21.55;56.32;100199.91;5254986;55;1141117;-75
2022/05/20 21:08:40;;;;;;;29.57;8.45;;;;;;;21.46;57.44;100193.55;5286816;55;1141259;-73
2022/05/20 21:13:46;;;;;;;10.35;7.25;;;;;;;21.59;59.15;100164.84;5287422;56;1141076;-73
2022/05/20 21:18:52;;;;;;;17.20;7.10;;;;;;;21.46;59.98;100140.56;5090798;57;1141103;-73
2022/05/20 21:23:58;;;;;;;11.45;6.45;;;;;;;21.25;61.81;100116.42;5261098;55;1141114;-74
2022/05/20 21:29:04;;;;;;;16.05;7.58;;;;;;;21.22;62.13;100127.60;5199141;56;1141077;-74
2022/05/20 21:34:10;;;;;;;12.25;8.10;;;;;;;21.29;63.48;100136.53;5206391;56;1141061;-72
2022/05/20 21:39:16;;;;;;;19.52;7.03;;;;;;;21.25;64.29;100117.77;5198156;56;1141356;-72
2022/05/20 21:44:22;;;;;;;18.82;7.40;;;;;;;21.13;67.51;100103.19;5255000;55;1141209;-73
2022/05/20 21:49:32;;;;;;;8.75;6.25;;;;;;;20.98;65.27;100090.69;5295290;55;1141207;-73
2022/05/20 21:54:41;;;;;;;10.90;5.87;;;;;;;20.90;67.49;100084.64;5304383;55;1138967;-73
2022/05/20 21:59:47;;;;;;;16.32;5.87;;;;;;;20.71;66.66;100064.66;5317703;55;1141123;-74
2022/05/20 22:10:20;;;;;;;7.37;6.50;;;;;;;20.51;68.61;100052.41;5301574;55;1137050;-74
2022/05/20 22:15:28;;;;;;;12.75;6.08;;;;;;;20.34;69.56;100040.23;5289210;55;1136953;-71
2022/05/20 22:20:34;;;;;;;18.23;7.62;;;;;;;20.15;70.49;100053.83;5289253;55;1139034;-74
2022/05/20 22:25:40;;;;;;;10.28;6.37;;;;;;;20.11;69.85;100042.31;5289076;55;1139020;-74
2022/05/20 22:30:46;;;;;;;12.03;7.42;;;;;;;20.12;70.26;100038.61;5212121;55;1139080;-75
2022/05/20 22:35:51;;;;;;;20.15;8.43;;;;;;;20.18;70.61;100070.05;5274766;55;1139013;-74
2022/05/20 22:40:58;;;;;;;15.32;7.87;;;;;;;20.26;69.83;100077.48;5187043;55;1138983;-73
2022/05/20 22:46:04;;;;;;;22.15;8.78;;;;;;;20.11;70.27;100086.62;5221238;55;1139127;-71
2022/05/20 22:51:10;;;;;;;20.30;8.70;;;;;;;19.88;71.69;100056.73;5172724;55;1139081;-71
2022/05/20 22:56:16;;;;;;;18.05;7.62;;;;;;;19.65;72.63;100041.33;5233536;55;1139076;-72
2022/05/20 23:01:27;;;;;;;21.55;8.73;;;;;;;19.62;73.70;99997.43;5266721;55;1139070;-71
2022/05/20 23:06:33;;;;;;;18.73;8.58;;;;;;;19.55;73.90;99978.60;5298763;55;1136888;-71
2022/05/20 23:11:40;;;;;;;10.94;7.88;;;;;;;19.62;75.20;99978.14;5298121;55;1134869;-71
2022/05/20 23:16:46;;;;;;;13.98;8.45;;;;;;;19.65;75.08;99988.50;5318168;55;21112;-74
2022/05/20 23:21:52;;;;;;;22.87;8.80;;;;;;;19.69;75.73;99976.88;5298270;55;1134960;-71
2022/05/20 23:26:58;;;;;;;15.58;9.80;;;;;;;19.66;76.16;99966.52;5255029;55;1139271;-70
2022/05/20 23:32:04;;;;;;;19.13;9.23;;;;;;;19.58;77.76;99956.73;5212879;55;1139207;-74
2022/05/20 23:37:10;;;;;;;16.17;10.18;;;;;;;19.49;78.37;99939.11;5205036;56;1139209;-72
2022/05/20 23:42:16;;;;;;;24.98;9.50;;;;;;;19.42;79.16;99929.29;5241372;56;1141185;-73
2022/05/20 23:47:22;;;;;;;16.27;10.25;;;;;;;19.35;79.97;99917.17;5262900;55;1138992;-72
2022/05/20 23:52:28;;;;;;;16.52;8.93;;;;;;;19.18;82.24;99903.67;5297590;55;1141170;-73
2022/05/20 23:57:35;;;;;;;14.47;10.43;;;;;;;19.00;82.43;99888.52;5298146;55;1138991;-74
